Terminal Aerodrome Forecast
Issued by NWS

Home | Current Version | Previous Version | Text Only | Print | Product List | Glossary On
Versions: 1 2 3 4 5 6 7 8 9 10 11 12 13 14 15 16 17 18 19
000
FTUS46 KPDT 231126
TAFRDM
TAF
KRDM 231126Z 2312/2412 VRB04KT P6SM BKN035
     FM231500 25006KT P6SM BKN060
     FM232000 30010G20KT P6SM VCSH BKN080
      TEMPO 2321/2401 -SHRA BKN050 BKN100
     FM240400 VRB05KT P6SM VCSH BKN050 BKN100=

USA.gov is the U.S. government's official web portal to all federal, state and local government web resources and services.